sensor_id;sensor_type;location;lat;lon;timestamp;P1;durP1;ratioP1;P2;durP2;ratioP2
39340;SDS011;25059;52.132;21.062;2023-05-23T00:02:28;0.10;;;0.10;;
39340;SDS011;25059;52.132;21.062;2023-05-23T00:05:13;0.20;;;0.20;;
39340;SDS011;25059;52.132;21.062;2023-05-23T00:08:01;0.15;;;0.15;;
39340;SDS011;25059;52.132;21.062;2023-05-23T00:10:47;0.10;;;0.10;;
39340;SDS011;25059;52.132;21.062;2023-05-23T00:13:31;0.10;;;0.10;;
39340;SDS011;25059;52.132;21.062;2023-05-23T00:16:18;0.17;;;0.17;;
39340;SDS011;25059;52.132;21.062;2023-05-23T00:19:04;0.20;;;0.20;;
39340;SDS011;25059;52.132;21.062;2023-05-23T00:21:49;0.20;;;0.20;;
39340;SDS011;25059;52.132;21.062;2023-05-23T00:24:34;0.20;;;0.20;;
39340;SDS011;25059;52.132;21.062;2023-05-23T00:27:19;0.10;;;0.10;;
39340;SDS011;25059;52.132;21.062;2023-05-23T00:30:03;0.10;;;0.10;;
39340;SDS011;25059;52.132;21.062;2023-05-23T00:32:48;0.20;;;0.20;;
39340;SDS011;25059;52.132;21.062;2023-05-23T00:35:33;0.20;;;0.20;;
39340;SDS011;25059;52.132;21.062;2023-05-23T00:38:18;0.20;;;0.20;;
39340;SDS011;25059;52.132;21.062;2023-05-23T00:41:03;0.10;;;0.10;;
39340;SDS011;25059;52.132;21.062;2023-05-23T00:43:47;0.20;;;0.20;;
39340;SDS011;25059;52.132;21.062;2023-05-23T00:46:32;0.20;;;0.20;;
39340;SDS011;25059;52.132;21.062;2023-05-23T00:49:17;0.10;;;0.10;;
39340;SDS011;25059;52.132;21.062;2023-05-23T00:52:05;0.20;;;0.20;;
39340;SDS011;25059;52.132;21.062;2023-05-23T00:54:50;0.10;;;0.10;;
39340;SDS011;25059;52.132;21.062;2023-05-23T00:57:35;0.10;;;0.10;;
39340;SDS011;25059;52.132;21.062;2023-05-23T01:00:24;0.13;;;0.13;;
39340;SDS011;25059;52.132;21.062;2023-05-23T01:03:09;0.10;;;0.10;;
39340;SDS011;25059;52.132;21.062;2023-05-23T01:06:00;0.10;;;0.10;;
39340;SDS011;25059;52.132;21.062;2023-05-23T01:08:45;0.20;;;0.20;;
39340;SDS011;25059;52.132;21.062;2023-05-23T01:11:41;0.20;;;0.20;;
39340;SDS011;25059;52.132;21.062;2023-05-23T01:14:37;0.10;;;0.10;;
39340;SDS011;25059;52.132;21.062;2023-05-23T01:17:33;0.10;;;0.10;;
39340;SDS011;25059;52.132;21.062;2023-05-23T01:20:27;0.20;;;0.20;;
39340;SDS011;25059;52.132;21.062;2023-05-23T01:29:37;0.20;;;0.20;;
39340;SDS011;25059;52.132;21.062;2023-05-23T01:32:26;0.20;;;0.20;;
39340;SDS011;25059;52.132;21.062;2023-05-23T01:35:11;0.20;;;0.20;;
39340;SDS011;25059;52.132;21.062;2023-05-23T01:38:03;0.10;;;0.10;;
39340;SDS011;25059;52.132;21.062;2023-05-23T01:40:47;0.10;;;0.10;;
39340;SDS011;25059;52.132;21.062;2023-05-23T01:43:32;0.20;;;0.20;;
39340;SDS011;25059;52.132;21.062;2023-05-23T01:46:16;0.10;;;0.10;;
39340;SDS011;25059;52.132;21.062;2023-05-23T01:49:02;0.10;;;0.10;;
39340;SDS011;25059;52.132;21.062;2023-05-23T01:51:47;0.10;;;0.10;;
39340;SDS011;25059;52.132;21.062;2023-05-23T01:54:32;0.15;;;0.15;;
39340;SDS011;25059;52.132;21.062;2023-05-23T01:57:18;1.02;;;0.20;;
39340;SDS011;25059;52.132;21.062;2023-05-23T02:00:04;0.10;;;0.10;;
39340;SDS011;25059;52.132;21.062;2023-05-23T02:02:49;0.10;;;0.10;;
39340;SDS011;25059;52.132;21.062;2023-05-23T02:05:34;0.10;;;0.10;;
39340;SDS011;25059;52.132;21.062;2023-05-23T02:08:18;0.20;;;0.20;;
39340;SDS011;25059;52.132;21.062;2023-05-23T02:11:03;0.10;;;0.10;;
39340;SDS011;25059;52.132;21.062;2023-05-23T02:13:48;0.10;;;0.10;;
39340;SDS011;25059;52.132;21.062;2023-05-23T02:16:32;0.13;;;0.13;;
39340;SDS011;25059;52.132;21.062;2023-05-23T02:19:19;0.10;;;0.10;;
39340;SDS011;25059;52.132;21.062;2023-05-23T02:22:04;0.10;;;0.10;;
39340;SDS011;25059;52.132;21.062;2023-05-23T02:24:48;0.17;;;0.17;;
39340;SDS011;25059;52.132;21.062;2023-05-23T02:27:33;0.20;;;0.20;;
39340;SDS011;25059;52.132;21.062;2023-05-23T02:30:17;0.20;;;0.20;;
39340;SDS011;25059;52.132;21.062;2023-05-23T02:33:03;0.15;;;0.15;;
39340;SDS011;25059;52.132;21.062;2023-05-23T02:35:49;0.10;;;0.10;;
39340;SDS011;25059;52.132;21.062;2023-05-23T02:38:34;0.10;;;0.10;;
39340;SDS011;25059;52.132;21.062;2023-05-23T02:41:19;0.20;;;0.20;;
39340;SDS011;25059;52.132;21.062;2023-05-23T02:44:04;0.20;;;0.20;;
39340;SDS011;25059;52.132;21.062;2023-05-23T02:46:49;0.17;;;0.17;;
39340;SDS011;25059;52.132;21.062;2023-05-23T02:49:33;0.13;;;0.13;;
39340;SDS011;25059;52.132;21.062;2023-05-23T02:52:18;0.10;;;0.10;;
39340;SDS011;25059;52.132;21.062;2023-05-23T02:55:02;0.20;;;0.20;;
39340;SDS011;25059;52.132;21.062;2023-05-23T02:57:47;0.20;;;0.20;;
39340;SDS011;25059;52.132;21.062;2023-05-23T03:00:32;0.20;;;0.20;;
39340;SDS011;25059;52.132;21.062;2023-05-23T03:03:16;0.20;;;0.20;;
39340;SDS011;25059;52.132;21.062;2023-05-23T03:06:01;0.20;;;0.20;;
39340;SDS011;25059;52.132;21.062;2023-05-23T03:08:48;0.10;;;0.10;;
39340;SDS011;25059;52.132;21.062;2023-05-23T03:11:32;0.20;;;0.20;;
39340;SDS011;25059;52.132;21.062;2023-05-23T03:14:17;0.20;;;0.20;;
39340;SDS011;25059;52.132;21.062;2023-05-23T03:17:01;0.10;;;0.10;;
39340;SDS011;25059;52.132;21.062;2023-05-23T03:19:46;0.10;;;0.10;;
39340;SDS011;25059;52.132;21.062;2023-05-23T03:22:31;0.10;;;0.10;;
39340;SDS011;25059;52.132;21.062;2023-05-23T03:25:15;0.20;;;0.20;;
39340;SDS011;25059;52.132;21.062;2023-05-23T03:28:00;0.10;;;0.10;;
39340;SDS011;25059;52.132;21.062;2023-05-23T03:30:45;0.20;;;0.20;;
39340;SDS011;25059;52.132;21.062;2023-05-23T03:33:29;0.10;;;0.10;;
39340;SDS011;25059;52.132;21.062;2023-05-23T03:36:14;0.20;;;0.20;;
39340;SDS011;25059;52.132;21.062;2023-05-23T03:38:59;0.10;;;0.10;;
39340;SDS011;25059;52.132;21.062;2023-05-23T03:41:43;0.17;;;0.17;;
39340;SDS011;25059;52.132;21.062;2023-05-23T03:44:28;0.10;;;0.10;;
39340;SDS011;25059;52.132;21.062;2023-05-23T03:47:12;0.10;;;0.10;;
39340;SDS011;25059;52.132;21.062;2023-05-23T03:49:57;0.20;;;0.20;;
39340;SDS011;25059;52.132;21.062;2023-05-23T03:52:41;0.20;;;0.20;;
39340;SDS011;25059;52.132;21.062;2023-05-23T03:55:26;0.20;;;0.20;;
39340;SDS011;25059;52.132;21.062;2023-05-23T03:58:11;0.10;;;0.10;;
39340;SDS011;25059;52.132;21.062;2023-05-23T04:00:55;0.10;;;0.10;;
39340;SDS011;25059;52.132;21.062;2023-05-23T04:03:40;0.10;;;0.10;;
39340;SDS011;25059;52.132;21.062;2023-05-23T04:06:25;0.20;;;0.20;;
39340;SDS011;25059;52.132;21.062;2023-05-23T04:09:10;0.10;;;0.10;;
39340;SDS011;25059;52.132;21.062;2023-05-23T04:11:54;0.10;;;0.10;;
39340;SDS011;25059;52.132;21.062;2023-05-23T04:14:39;0.10;;;0.10;;
39340;SDS011;25059;52.132;21.062;2023-05-23T04:17:24;0.10;;;0.10;;
39340;SDS011;25059;52.132;21.062;2023-05-23T04:20:09;0.20;;;0.20;;
39340;SDS011;25059;52.132;21.062;2023-05-23T04:22:54;0.10;;;0.10;;
39340;SDS011;25059;52.132;21.062;2023-05-23T04:25:38;0.13;;;0.13;;
39340;SDS011;25059;52.132;21.062;2023-05-23T04:28:24;0.10;;;0.10;;
39340;SDS011;25059;52.132;21.062;2023-05-23T04:31:10;0.10;;;0.10;;
39340;SDS011;25059;52.132;21.062;2023-05-23T04:33:55;0.10;;;0.10;;
39340;SDS011;25059;52.132;21.062;2023-05-23T04:36:40;0.10;;;0.10;;
39340;SDS011;25059;52.132;21.062;2023-05-23T04:39:28;0.10;;;0.10;;
39340;SDS011;25059;52.132;21.062;2023-05-23T04:42:13;0.10;;;0.10;;
39340;SDS011;25059;52.132;21.062;2023-05-23T04:44:57;0.10;;;0.10;;
39340;SDS011;25059;52.132;21.062;2023-05-23T04:47:42;0.03;;;0.03;;
39340;SDS011;25059;52.132;21.062;2023-05-23T04:50:28;0.10;;;0.10;;
39340;SDS011;25059;52.132;21.062;2023-05-23T04:53:16;0.20;;;0.20;;
39340;SDS011;25059;52.132;21.062;2023-05-23T04:56:00;0.10;;;0.10;;
39340;SDS011;25059;52.132;21.062;2023-05-23T04:58:46;0.10;;;0.10;;
39340;SDS011;25059;52.132;21.062;2023-05-23T05:01:31;0.10;;;0.10;;
39340;SDS011;25059;52.132;21.062;2023-05-23T05:04:15;0.10;;;0.10;;
39340;SDS011;25059;52.132;21.062;2023-05-23T05:07:00;0.10;;;0.10;;
39340;SDS011;25059;52.132;21.062;2023-05-23T05:09:47;0.10;;;0.10;;
39340;SDS011;25059;52.132;21.062;2023-05-23T05:12:31;0.10;;;0.10;;
39340;SDS011;25059;52.132;21.062;2023-05-23T05:15:16;0.10;;;0.10;;
39340;SDS011;25059;52.132;21.062;2023-05-23T05:18:02;0.10;;;0.10;;
39340;SDS011;25059;52.132;21.062;2023-05-23T05:20:46;0.10;;;0.10;;
39340;SDS011;25059;52.132;21.062;2023-05-23T05:23:31;0.10;;;0.10;;
39340;SDS011;25059;52.132;21.062;2023-05-23T05:26:16;0.10;;;0.10;;
39340;SDS011;25059;52.132;21.062;2023-05-23T05:29:01;0.10;;;0.10;;
39340;SDS011;25059;52.132;21.062;2023-05-23T05:31:45;0.10;;;0.10;;
39340;SDS011;25059;52.132;21.062;2023-05-23T05:34:30;0.10;;;0.10;;
39340;SDS011;25059;52.132;21.062;2023-05-23T05:37:14;0.10;;;0.10;;
39340;SDS011;25059;52.132;21.062;2023-05-23T05:39:59;0.10;;;0.10;;
39340;SDS011;25059;52.132;21.062;2023-05-23T05:42:49;0.10;;;0.10;;
39340;SDS011;25059;52.132;21.062;2023-05-23T05:45:34;0.10;;;0.10;;
39340;SDS011;25059;52.132;21.062;2023-05-23T05:48:20;0.10;;;0.10;;
39340;SDS011;25059;52.132;21.062;2023-05-23T05:51:04;0.10;;;0.10;;
39340;SDS011;25059;52.132;21.062;2023-05-23T05:53:49;0.10;;;0.10;;
39340;SDS011;25059;52.132;21.062;2023-05-23T05:56:33;0.10;;;0.10;;
39340;SDS011;25059;52.132;21.062;2023-05-23T05:59:18;0.10;;;0.10;;
39340;SDS011;25059;52.132;21.062;2023-05-23T06:02:02;0.10;;;0.10;;
39340;SDS011;25059;52.132;21.062;2023-05-23T06:04:49;0.10;;;0.10;;
39340;SDS011;25059;52.132;21.062;2023-05-23T06:07:34;0.10;;;0.10;;
39340;SDS011;25059;52.132;21.062;2023-05-23T06:10:29;0.10;;;0.10;;
39340;SDS011;25059;52.132;21.062;2023-05-23T06:13:14;0.10;;;0.10;;
39340;SDS011;25059;52.132;21.062;2023-05-23T06:16:02;0.10;;;0.10;;
39340;SDS011;25059;52.132;21.062;2023-05-23T06:18:58;0.10;;;0.10;;
39340;SDS011;25059;52.132;21.062;2023-05-23T06:21:55;0.10;;;0.10;;
39340;SDS011;25059;52.132;21.062;2023-05-23T06:24:41;0.10;;;0.10;;
39340;SDS011;25059;52.132;21.062;2023-05-23T06:27:26;0.10;;;0.10;;
39340;SDS011;25059;52.132;21.062;2023-05-23T06:30:14;0.10;;;0.10;;
39340;SDS011;25059;52.132;21.062;2023-05-23T06:33:08;0.10;;;0.10;;
39340;SDS011;25059;52.132;21.062;2023-05-23T06:39:35;0.08;;;0.08;;
39340;SDS011;25059;52.132;21.062;2023-05-23T06:42:20;0.10;;;0.10;;
39340;SDS011;25059;52.132;21.062;2023-05-23T06:48:49;0.00;;;0.00;;
39340;SDS011;25059;52.132;21.062;2023-05-23T06:51:33;0.10;;;0.10;;
39340;SDS011;25059;52.132;21.062;2023-05-23T06:54:19;0.10;;;0.10;;
39340;SDS011;25059;52.132;21.062;2023-05-23T06:57:04;0.10;;;0.10;;
39340;SDS011;25059;52.132;21.062;2023-05-23T06:59:49;0.10;;;0.10;;
39340;SDS011;25059;52.132;21.062;2023-05-23T07:02:34;0.10;;;0.10;;
39340;SDS011;25059;52.132;21.062;2023-05-23T07:05:25;0.10;;;0.10;;
39340;SDS011;25059;52.132;21.062;2023-05-23T07:08:11;0.03;;;0.03;;
39340;SDS011;25059;52.132;21.062;2023-05-23T07:10:59;0.10;;;0.10;;
39340;SDS011;25059;52.132;21.062;2023-05-23T07:13:44;0.10;;;0.10;;
39340;SDS011;25059;52.132;21.062;2023-05-23T07:16:29;0.10;;;0.10;;
39340;SDS011;25059;52.132;21.062;2023-05-23T07:19:14;0.10;;;0.10;;
39340;SDS011;25059;52.132;21.062;2023-05-23T07:21:58;0.10;;;0.10;;
39340;SDS011;25059;52.132;21.062;2023-05-23T07:24:43;0.10;;;0.10;;
39340;SDS011;25059;52.132;21.062;2023-05-23T07:27:29;0.10;;;0.10;;
39340;SDS011;25059;52.132;21.062;2023-05-23T07:30:14;0.10;;;0.10;;
39340;SDS011;25059;52.132;21.062;2023-05-23T07:33:00;0.00;;;0.00;;
39340;SDS011;25059;52.132;21.062;2023-05-23T07:35:54;0.10;;;0.10;;
39340;SDS011;25059;52.132;21.062;2023-05-23T07:38:39;0.10;;;0.10;;
39340;SDS011;25059;52.132;21.062;2023-05-23T07:41:23;0.08;;;0.08;;
39340;SDS011;25059;52.132;21.062;2023-05-23T07:44:08;0.10;;;0.10;;
39340;SDS011;25059;52.132;21.062;2023-05-23T07:46:53;0.00;;;0.00;;
39340;SDS011;25059;52.132;21.062;2023-05-23T07:49:38;0.10;;;0.10;;
39340;SDS011;25059;52.132;21.062;2023-05-23T07:52:25;0.10;;;0.10;;
39340;SDS011;25059;52.132;21.062;2023-05-23T07:55:10;0.13;;;0.13;;
39340;SDS011;25059;52.132;21.062;2023-05-23T07:57:55;0.10;;;0.10;;
39340;SDS011;25059;52.132;21.062;2023-05-23T08:00:40;0.10;;;0.10;;
39340;SDS011;25059;52.132;21.062;2023-05-23T08:03:26;0.10;;;0.10;;
39340;SDS011;25059;52.132;21.062;2023-05-23T08:06:11;0.10;;;0.10;;
39340;SDS011;25059;52.132;21.062;2023-05-23T08:08:57;0.10;;;0.10;;
39340;SDS011;25059;52.132;21.062;2023-05-23T08:11:41;0.17;;;0.17;;
39340;SDS011;25059;52.132;21.062;2023-05-23T08:14:26;0.10;;;0.10;;
39340;SDS011;25059;52.132;21.062;2023-05-23T08:17:11;0.10;;;0.10;;
39340;SDS011;25059;52.132;21.062;2023-05-23T08:19:55;0.08;;;0.08;;
39340;SDS011;25059;52.132;21.062;2023-05-23T08:22:40;0.10;;;0.10;;
39340;SDS011;25059;52.132;21.062;2023-05-23T08:25:26;0.10;;;0.10;;
39340;SDS011;25059;52.132;21.062;2023-05-23T08:28:14;0.10;;;0.10;;
39340;SDS011;25059;52.132;21.062;2023-05-23T08:30:58;0.10;;;0.10;;
39340;SDS011;25059;52.132;21.062;2023-05-23T08:33:43;0.10;;;0.10;;
39340;SDS011;25059;52.132;21.062;2023-05-23T08:36:28;0.10;;;0.10;;
39340;SDS011;25059;52.132;21.062;2023-05-23T08:39:15;0.00;;;0.00;;
39340;SDS011;25059;52.132;21.062;2023-05-23T08:42:03;0.00;;;0.00;;
39340;SDS011;25059;52.132;21.062;2023-05-23T08:44:48;0.20;;;0.20;;
39340;SDS011;25059;52.132;21.062;2023-05-23T08:47:32;0.10;;;0.10;;
39340;SDS011;25059;52.132;21.062;2023-05-23T08:50:21;0.00;;;0.00;;
39340;SDS011;25059;52.132;21.062;2023-05-23T08:53:09;0.10;;;0.10;;
39340;SDS011;25059;52.132;21.062;2023-05-23T08:56:02;0.10;;;0.10;;
39340;SDS011;25059;52.132;21.062;2023-05-23T08:58:47;0.10;;;0.10;;
39340;SDS011;25059;52.132;21.062;2023-05-23T09:01:32;0.10;;;0.10;;
39340;SDS011;25059;52.132;21.062;2023-05-23T09:04:19;0.10;;;0.10;;
39340;SDS011;25059;52.132;21.062;2023-05-23T09:07:04;0.10;;;0.10;;
39340;SDS011;25059;52.132;21.062;2023-05-23T09:09:58;0.10;;;0.10;;
39340;SDS011;25059;52.132;21.062;2023-05-23T09:12:43;0.10;;;0.10;;
39340;SDS011;25059;52.132;21.062;2023-05-23T09:15:27;0.10;;;0.10;;
39340;SDS011;25059;52.132;21.062;2023-05-23T09:18:12;0.10;;;0.10;;
39340;SDS011;25059;52.132;21.062;2023-05-23T09:20:57;0.00;;;0.00;;
39340;SDS011;25059;52.132;21.062;2023-05-23T09:23:42;0.10;;;0.10;;
39340;SDS011;25059;52.132;21.062;2023-05-23T09:26:27;0.10;;;0.10;;
39340;SDS011;25059;52.132;21.062;2023-05-23T09:29:12;0.10;;;0.10;;
39340;SDS011;25059;52.132;21.062;2023-05-23T09:31:59;0.10;;;0.10;;
39340;SDS011;25059;52.132;21.062;2023-05-23T09:34:54;0.10;;;0.10;;
39340;SDS011;25059;52.132;21.062;2023-05-23T09:37:42;0.10;;;0.10;;
39340;SDS011;25059;52.132;21.062;2023-05-23T09:40:30;0.10;;;0.10;;
39340;SDS011;25059;52.132;21.062;2023-05-23T09:43:16;0.10;;;0.10;;
39340;SDS011;25059;52.132;21.062;2023-05-23T09:46:09;0.10;;;0.10;;
39340;SDS011;25059;52.132;21.062;2023-05-23T09:48:54;0.08;;;0.08;;
39340;SDS011;25059;52.132;21.062;2023-05-23T09:51:39;0.10;;;0.10;;
39340;SDS011;25059;52.132;21.062;2023-05-23T09:54:24;0.10;;;0.10;;
39340;SDS011;25059;52.132;21.062;2023-05-23T09:57:09;0.10;;;0.10;;
39340;SDS011;25059;52.132;21.062;2023-05-23T09:59:54;0.10;;;0.10;;
39340;SDS011;25059;52.132;21.062;2023-05-23T10:05:36;0.10;;;0.10;;
39340;SDS011;25059;52.132;21.062;2023-05-23T10:08:23;0.17;;;0.17;;
39340;SDS011;25059;52.132;21.062;2023-05-23T10:13:58;0.10;;;0.10;;
39340;SDS011;25059;52.132;21.062;2023-05-23T10:17:08;0.10;;;0.10;;
39340;SDS011;25059;52.132;21.062;2023-05-23T10:19:59;0.10;;;0.10;;
39340;SDS011;25059;52.132;21.062;2023-05-23T10:25:33;0.10;;;0.10;;
39340;SDS011;25059;52.132;21.062;2023-05-23T10:28:19;0.00;;;0.00;;
39340;SDS011;25059;52.132;21.062;2023-05-23T10:31:05;0.20;;;0.20;;
39340;SDS011;25059;52.132;21.062;2023-05-23T10:33:52;0.20;;;0.20;;
39340;SDS011;25059;52.132;21.062;2023-05-23T10:45:43;0.40;;;0.40;;
39340;SDS011;25059;52.132;21.062;2023-05-23T10:48:32;0.60;;;0.60;;
39340;SDS011;25059;52.132;21.062;2023-05-23T10:51:19;0.50;;;0.50;;
39340;SDS011;25059;52.132;21.062;2023-05-23T10:54:09;0.45;;;0.45;;
39340;SDS011;25059;52.132;21.062;2023-05-23T10:57:01;0.57;;;0.57;;
39340;SDS011;25059;52.132;21.062;2023-05-23T10:59:49;0.50;;;0.50;;
39340;SDS011;25059;52.132;21.062;2023-05-23T11:02:35;0.90;;;0.90;;
39340;SDS011;25059;52.132;21.062;2023-05-23T11:05:20;1.10;;;1.10;;
39340;SDS011;25059;52.132;21.062;2023-05-23T11:10:53;1.40;;;1.40;;
39340;SDS011;25059;52.132;21.062;2023-05-23T11:13:58;2.03;;;1.92;;
39340;SDS011;25059;52.132;21.062;2023-05-23T11:16:44;2.00;;;1.90;;
39340;SDS011;25059;52.132;21.062;2023-05-23T11:22:15;1.60;;;1.60;;
39340;SDS011;25059;52.132;21.062;2023-05-23T11:28:54;0.97;;;0.97;;
39340;SDS011;25059;52.132;21.062;2023-05-23T11:31:39;0.57;;;0.57;;
39340;SDS011;25059;52.132;21.062;2023-05-23T11:34:24;0.60;;;0.60;;
39340;SDS011;25059;52.132;21.062;2023-05-23T11:37:09;0.80;;;0.80;;
39340;SDS011;25059;52.132;21.062;2023-05-23T11:39:55;0.50;;;0.50;;
39340;SDS011;25059;52.132;21.062;2023-05-23T11:42:40;0.80;;;0.80;;
39340;SDS011;25059;52.132;21.062;2023-05-23T11:45:26;0.70;;;0.70;;
39340;SDS011;25059;52.132;21.062;2023-05-23T11:48:14;0.95;;;0.95;;
39340;SDS011;25059;52.132;21.062;2023-05-23T11:50:59;1.10;;;1.10;;
39340;SDS011;25059;52.132;21.062;2023-05-23T11:53:46;1.30;;;1.30;;
39340;SDS011;25059;52.132;21.062;2023-05-23T11:56:30;1.40;;;1.40;;
39340;SDS011;25059;52.132;21.062;2023-05-23T11:59:15;1.60;;;1.60;;
39340;SDS011;25059;52.132;21.062;2023-05-23T12:02:00;1.50;;;1.50;;
39340;SDS011;25059;52.132;21.062;2023-05-23T12:04:47;1.30;;;1.30;;
39340;SDS011;25059;52.132;21.062;2023-05-23T12:07:32;1.67;;;1.67;;
39340;SDS011;25059;52.132;21.062;2023-05-23T12:10:17;1.70;;;1.70;;
39340;SDS011;25059;52.132;21.062;2023-05-23T12:13:05;1.75;;;1.73;;
39340;SDS011;25059;52.132;21.062;2023-05-23T12:15:52;1.67;;;1.67;;
39340;SDS011;25059;52.132;21.062;2023-05-23T12:18:39;1.60;;;1.60;;
39340;SDS011;25059;52.132;21.062;2023-05-23T12:21:25;1.70;;;1.70;;
39340;SDS011;25059;52.132;21.062;2023-05-23T12:24:13;2.20;;;2.10;;
39340;SDS011;25059;52.132;21.062;2023-05-23T12:27:02;2.10;;;2.00;;
39340;SDS011;25059;52.132;21.062;2023-05-23T12:29:49;1.70;;;1.70;;
39340;SDS011;25059;52.132;21.062;2023-05-23T12:32:39;1.40;;;1.40;;
39340;SDS011;25059;52.132;21.062;2023-05-23T12:35:25;1.13;;;1.13;;
39340;SDS011;25059;52.132;21.062;2023-05-23T12:38:16;0.80;;;0.80;;
39340;SDS011;25059;52.132;21.062;2023-05-23T12:43:55;0.95;;;0.95;;
39340;SDS011;25059;52.132;21.062;2023-05-23T12:46:40;0.50;;;0.50;;
39340;SDS011;25059;52.132;21.062;2023-05-23T12:49:24;0.60;;;0.60;;
39340;SDS011;25059;52.132;21.062;2023-05-23T12:52:09;0.70;;;0.70;;
39340;SDS011;25059;52.132;21.062;2023-05-23T12:54:54;0.90;;;0.90;;
39340;SDS011;25059;52.132;21.062;2023-05-23T12:57:39;1.10;;;1.10;;
39340;SDS011;25059;52.132;21.062;2023-05-23T13:00:24;1.10;;;1.10;;
39340;SDS011;25059;52.132;21.062;2023-05-23T13:03:08;0.85;;;0.85;;
39340;SDS011;25059;52.132;21.062;2023-05-23T13:05:53;0.88;;;0.88;;
39340;SDS011;25059;52.132;21.062;2023-05-23T13:08:37;0.73;;;0.73;;
39340;SDS011;25059;52.132;21.062;2023-05-23T13:14:48;0.60;;;0.60;;
39340;SDS011;25059;52.132;21.062;2023-05-23T13:17:33;0.70;;;0.70;;
39340;SDS011;25059;52.132;21.062;2023-05-23T13:20:18;0.70;;;0.70;;
39340;SDS011;25059;52.132;21.062;2023-05-23T13:23:02;0.50;;;0.50;;
39340;SDS011;25059;52.132;21.062;2023-05-23T13:25:47;0.68;;;0.68;;
39340;SDS011;25059;52.132;21.062;2023-05-23T13:28:33;1.20;;;1.20;;
39340;SDS011;25059;52.132;21.062;2023-05-23T13:31:18;1.52;;;1.52;;
39340;SDS011;25059;52.132;21.062;2023-05-23T13:34:03;1.75;;;1.75;;
39340;SDS011;25059;52.132;21.062;2023-05-23T13:36:47;1.75;;;1.75;;
39340;SDS011;25059;52.132;21.062;2023-05-23T13:39:32;2.22;;;2.13;;
39340;SDS011;25059;52.132;21.062;2023-05-23T13:42:17;2.30;;;2.20;;
39340;SDS011;25059;52.132;21.062;2023-05-23T13:45:01;2.30;;;2.20;;
39340;SDS011;25059;52.132;21.062;2023-05-23T13:47:47;2.20;;;2.10;;
39340;SDS011;25059;52.132;21.062;2023-05-23T13:50:31;2.10;;;2.00;;
39340;SDS011;25059;52.132;21.062;2023-05-23T13:53:16;2.22;;;2.13;;
39340;SDS011;25059;52.132;21.062;2023-05-23T13:56:01;2.30;;;2.20;;
39340;SDS011;25059;52.132;21.062;2023-05-23T13:58:46;1.98;;;1.88;;
39340;SDS011;25059;52.132;21.062;2023-05-23T14:01:31;2.40;;;2.30;;
39340;SDS011;25059;52.132;21.062;2023-05-23T14:04:15;2.20;;;2.10;;
39340;SDS011;25059;52.132;21.062;2023-05-23T14:07:00;2.60;;;2.50;;
39340;SDS011;25059;52.132;21.062;2023-05-23T14:09:45;2.20;;;2.10;;
39340;SDS011;25059;52.132;21.062;2023-05-23T14:12:29;2.58;;;2.47;;
39340;SDS011;25059;52.132;21.062;2023-05-23T14:15:14;2.72;;;2.63;;
39340;SDS011;25059;52.132;21.062;2023-05-23T14:17:59;2.38;;;2.28;;
39340;SDS011;25059;52.132;21.062;2023-05-23T14:20:44;2.33;;;2.22;;
39340;SDS011;25059;52.132;21.062;2023-05-23T14:23:29;2.40;;;2.30;;
39340;SDS011;25059;52.132;21.062;2023-05-23T14:26:14;2.40;;;2.30;;
39340;SDS011;25059;52.132;21.062;2023-05-23T14:28:58;2.58;;;2.47;;
39340;SDS011;25059;52.132;21.062;2023-05-23T14:31:50;2.10;;;2.00;;
39340;SDS011;25059;52.132;21.062;2023-05-23T14:34:38;2.20;;;2.10;;
39340;SDS011;25059;52.132;21.062;2023-05-23T14:37:23;2.42;;;2.33;;
39340;SDS011;25059;52.132;21.062;2023-05-23T14:40:07;2.25;;;2.15;;
39340;SDS011;25059;52.132;21.062;2023-05-23T14:42:53;2.70;;;2.60;;
39340;SDS011;25059;52.132;21.062;2023-05-23T14:45:37;2.63;;;2.53;;
39340;SDS011;25059;52.132;21.062;2023-05-23T14:48:24;2.47;;;2.38;;
39340;SDS011;25059;52.132;21.062;2023-05-23T14:51:09;3.10;;;2.90;;
39340;SDS011;25059;52.132;21.062;2023-05-23T14:53:53;3.08;;;2.88;;
39340;SDS011;25059;52.132;21.062;2023-05-23T14:56:38;2.80;;;2.70;;
39340;SDS011;25059;52.132;21.062;2023-05-23T14:59:24;3.10;;;2.90;;
39340;SDS011;25059;52.132;21.062;2023-05-23T15:02:08;2.65;;;2.55;;
39340;SDS011;25059;52.132;21.062;2023-05-23T15:04:53;2.65;;;2.55;;
39340;SDS011;25059;52.132;21.062;2023-05-23T15:07:38;2.53;;;2.42;;
39340;SDS011;25059;52.132;21.062;2023-05-23T15:10:22;2.70;;;2.60;;
39340;SDS011;25059;52.132;21.062;2023-05-23T15:13:06;2.20;;;2.10;;
39340;SDS011;25059;52.132;21.062;2023-05-23T15:15:51;2.40;;;2.30;;
39340;SDS011;25059;52.132;21.062;2023-05-23T15:18:37;2.67;;;2.58;;
39340;SDS011;25059;52.132;21.062;2023-05-23T15:21:24;2.45;;;2.35;;
39340;SDS011;25059;52.132;21.062;2023-05-23T15:24:09;2.50;;;2.40;;
39340;SDS011;25059;52.132;21.062;2023-05-23T15:26:53;2.78;;;2.67;;
39340;SDS011;25059;52.132;21.062;2023-05-23T15:29:38;3.10;;;2.90;;
39340;SDS011;25059;52.132;21.062;2023-05-23T15:32:24;2.38;;;2.28;;
39340;SDS011;25059;52.132;21.062;2023-05-23T15:35:08;2.60;;;2.50;;
39340;SDS011;25059;52.132;21.062;2023-05-23T15:37:53;2.50;;;2.40;;
39340;SDS011;25059;52.132;21.062;2023-05-23T15:40:38;2.22;;;2.13;;
39340;SDS011;25059;52.132;21.062;2023-05-23T15:43:22;2.20;;;2.10;;
39340;SDS011;25059;52.132;21.062;2023-05-23T15:46:07;1.70;;;1.70;;
39340;SDS011;25059;52.132;21.062;2023-05-23T15:48:52;1.10;;;1.10;;
39340;SDS011;25059;52.132;21.062;2023-05-23T15:51:37;1.38;;;1.38;;
39340;SDS011;25059;52.132;21.062;2023-05-23T15:54:21;1.30;;;1.30;;
39340;SDS011;25059;52.132;21.062;2023-05-23T15:57:06;1.30;;;1.30;;
39340;SDS011;25059;52.132;21.062;2023-05-23T15:59:51;1.17;;;1.17;;
39340;SDS011;25059;52.132;21.062;2023-05-23T16:02:35;1.20;;;1.20;;
39340;SDS011;25059;52.132;21.062;2023-05-23T16:05:20;1.10;;;1.10;;
39340;SDS011;25059;52.132;21.062;2023-05-23T16:08:05;0.85;;;0.85;;
39340;SDS011;25059;52.132;21.062;2023-05-23T16:10:49;0.90;;;0.90;;
39340;SDS011;25059;52.132;21.062;2023-05-23T16:13:34;0.80;;;0.80;;
39340;SDS011;25059;52.132;21.062;2023-05-23T16:16:19;0.70;;;0.70;;
39340;SDS011;25059;52.132;21.062;2023-05-23T16:19:03;0.90;;;0.90;;
39340;SDS011;25059;52.132;21.062;2023-05-23T16:21:48;0.75;;;0.75;;
39340;SDS011;25059;52.132;21.062;2023-05-23T16:24:33;0.70;;;0.70;;
39340;SDS011;25059;52.132;21.062;2023-05-23T16:27:18;0.60;;;0.60;;
39340;SDS011;25059;52.132;21.062;2023-05-23T16:30:03;0.50;;;0.50;;
39340;SDS011;25059;52.132;21.062;2023-05-23T16:32:49;0.30;;;0.30;;
39340;SDS011;25059;52.132;21.062;2023-05-23T16:35:34;0.30;;;0.30;;
39340;SDS011;25059;52.132;21.062;2023-05-23T16:38:18;0.22;;;0.22;;
39340;SDS011;25059;52.132;21.062;2023-05-23T16:41:03;0.28;;;0.28;;
39340;SDS011;25059;52.132;21.062;2023-05-23T16:43:47;0.30;;;0.30;;
39340;SDS011;25059;52.132;21.062;2023-05-23T16:46:32;0.20;;;0.20;;
39340;SDS011;25059;52.132;21.062;2023-05-23T16:49:17;0.30;;;0.30;;
39340;SDS011;25059;52.132;21.062;2023-05-23T16:52:01;0.20;;;0.20;;
39340;SDS011;25059;52.132;21.062;2023-05-23T16:54:46;0.10;;;0.10;;
39340;SDS011;25059;52.132;21.062;2023-05-23T16:57:31;0.10;;;0.10;;
39340;SDS011;25059;52.132;21.062;2023-05-23T17:00:16;0.10;;;0.10;;
39340;SDS011;25059;52.132;21.062;2023-05-23T17:03:01;0.10;;;0.10;;
39340;SDS011;25059;52.132;21.062;2023-05-23T17:05:46;0.10;;;0.10;;
39340;SDS011;25059;52.132;21.062;2023-05-23T17:08:30;0.10;;;0.10;;
39340;SDS011;25059;52.132;21.062;2023-05-23T17:11:15;0.10;;;0.10;;